createdAt,value
2018-12-24T00:01:05.712Z,90.93
2018-12-24T00:03:36.803Z,90.94
2018-12-24T00:06:07.868Z,90.93
2018-12-24T00:08:38.981Z,90.94
2018-12-24T00:11:10.061Z,90.96
2018-12-24T00:13:41.563Z,90.94
2018-12-24T00:16:14.043Z,90.93
2018-12-24T00:18:45.188Z,90.91
2018-12-24T00:21:16.308Z,90.91
2018-12-24T00:23:48.254Z,90.88
2018-12-24T00:26:19.519Z,90.87
2018-12-24T00:28:51.097Z,90.83
2018-12-24T00:31:22.164Z,90.81
2018-12-24T00:33:53.271Z,90.80
2018-12-24T00:36:24.773Z,90.77
2018-12-24T00:38:56.469Z,90.74
2018-12-24T00:41:27.473Z,90.77
2018-12-24T00:44:02.077Z,90.78
2018-12-24T00:46:33.031Z,90.78
2018-12-24T00:49:04.243Z,90.79
2018-12-24T00:51:35.340Z,90.76
2018-12-24T00:54:06.381Z,90.78
2018-12-24T00:56:37.490Z,90.78
2018-12-24T00:59:08.564Z,90.79
2018-12-24T01:01:39.660Z,90.80
2018-12-24T01:04:10.736Z,90.79
2018-12-24T01:06:41.877Z,90.77
2018-12-24T01:09:13.047Z,90.72
2018-12-24T01:11:44.067Z,90.70
2018-12-24T01:14:15.088Z,90.73
2018-12-24T01:16:46.395Z,90.76
2018-12-24T01:19:17.431Z,90.80
2018-12-24T01:21:48.544Z,90.80
2018-12-24T01:24:19.576Z,90.86
2018-12-24T01:26:50.751Z,90.98
2018-12-24T01:29:21.998Z,91.02
2018-12-24T01:31:53.181Z,91.07
2018-12-24T01:34:24.130Z,91.05
2018-12-24T01:36:55.114Z,91.08
2018-12-24T01:39:26.038Z,91.12
2018-12-24T01:41:57.098Z,91.12
2018-12-24T01:44:28.353Z,91.17
2018-12-24T01:46:59.397Z,91.17
2018-12-24T01:49:30.368Z,91.17
2018-12-24T01:52:01.258Z,91.10
2018-12-24T01:54:32.213Z,90.94
2018-12-24T01:57:03.349Z,90.70
2018-12-24T01:59:34.434Z,90.42
2018-12-24T02:02:05.421Z,90.28
2018-12-24T02:04:36.563Z,90.17
2018-12-24T02:07:07.594Z,90.19
2018-12-24T02:09:38.693Z,90.20
2018-12-24T02:12:09.722Z,90.23
2018-12-24T02:14:40.894Z,90.27
2018-12-24T02:17:11.827Z,90.38
2018-12-24T02:19:42.983Z,90.46
2018-12-24T02:22:13.889Z,90.48
2018-12-24T02:24:44.859Z,90.53
2018-12-24T02:27:15.825Z,90.61
2018-12-24T02:29:46.777Z,90.65
2018-12-24T02:32:17.850Z,90.68
2018-12-24T02:34:49.002Z,90.73
2018-12-24T02:37:20.259Z,90.77
2018-12-24T02:39:51.357Z,90.80
2018-12-24T02:42:22.514Z,90.80
2018-12-24T02:44:53.463Z,90.82
2018-12-24T02:47:24.593Z,90.80
2018-12-24T02:49:55.510Z,90.74
2018-12-24T02:52:26.571Z,90.71
2018-12-24T02:54:57.845Z,90.64
2018-12-24T02:57:28.937Z,90.64
2018-12-24T02:59:59.883Z,90.63
2018-12-24T03:02:30.967Z,90.63
2018-12-24T03:05:02.013Z,90.67
2018-12-24T03:07:33.084Z,90.64
2018-12-24T03:10:04.366Z,90.60
2018-12-24T03:12:35.388Z,90.55
2018-12-24T03:15:06.980Z,90.28
2018-12-24T03:17:38.039Z,90.02
2018-12-24T03:20:09.510Z,89.84
2018-12-24T03:22:40.558Z,89.67
2018-12-24T03:25:11.781Z,89.67
2018-12-24T03:27:42.998Z,89.55
2018-12-24T03:30:13.976Z,89.63
2018-12-24T03:32:44.983Z,89.73
2018-12-24T03:35:16.162Z,89.86
2018-12-24T03:37:47.179Z,90.07
2018-12-24T03:40:18.181Z,90.27
2018-12-24T03:42:49.154Z,90.41
2018-12-24T03:45:20.178Z,90.34
2018-12-24T03:47:51.112Z,90.10
2018-12-24T03:50:22.228Z,90.02
2018-12-24T03:52:53.188Z,89.82
2018-12-24T03:55:24.158Z,89.84
2018-12-24T03:57:55.099Z,89.90
2018-12-24T04:00:26.079Z,90.01
2018-12-24T04:02:57.159Z,90.04
2018-12-24T04:05:28.245Z,90.20
2018-12-24T04:07:59.284Z,90.35
2018-12-24T04:10:30.278Z,90.56
2018-12-24T04:13:01.159Z,90.68
2018-12-24T04:15:32.113Z,90.59
2018-12-24T04:18:03.077Z,90.58
2018-12-24T04:20:34.133Z,90.51
2018-12-24T04:23:05.214Z,90.53
2018-12-24T04:25:41.104Z,90.64
2018-12-24T04:28:12.156Z,90.80
2018-12-24T04:30:43.177Z,90.89
2018-12-24T04:33:14.178Z,90.95
2018-12-24T04:35:45.123Z,91.02
2018-12-24T04:38:16.133Z,91.09
2018-12-24T04:40:47.297Z,91.29
2018-12-24T04:43:18.353Z,91.33
2018-12-24T04:45:49.463Z,91.43
2018-12-24T04:48:20.544Z,91.47
2018-12-24T04:50:51.453Z,91.44
2018-12-24T04:53:22.614Z,91.41
2018-12-24T04:55:53.875Z,91.37
2018-12-24T04:58:25.097Z,91.39
2018-12-24T05:00:56.508Z,91.35
2018-12-24T05:03:27.595Z,91.22
2018-12-24T05:05:58.734Z,91.31
2018-12-24T05:08:29.800Z,91.33
2018-12-24T05:11:00.682Z,91.41
2018-12-24T05:13:31.610Z,91.45
2018-12-24T05:16:02.754Z,91.46
2018-12-24T05:18:33.737Z,91.44
2018-12-24T05:21:04.768Z,91.51
2018-12-24T05:23:35.688Z,91.49
2018-12-24T05:26:06.763Z,91.44
2018-12-24T05:28:37.848Z,91.42
2018-12-24T05:31:08.748Z,91.46
2018-12-24T05:33:39.809Z,91.37
2018-12-24T05:36:10.953Z,91.27
2018-12-24T05:38:41.864Z,91.18
2018-12-24T05:41:13.024Z,91.10
2018-12-24T05:43:49.340Z,91.09
2018-12-24T05:46:17.071Z,91.08
2018-12-24T05:48:48.122Z,90.99
2018-12-24T05:51:19.433Z,90.88
2018-12-24T05:53:50.338Z,90.74
2018-12-24T05:56:21.359Z,90.48
2018-12-24T05:58:52.448Z,90.09
2018-12-24T06:01:23.518Z,89.78
2018-12-24T06:03:54.489Z,89.57
2018-12-24T06:06:25.630Z,89.39
2018-12-24T06:08:56.694Z,89.16
2018-12-24T06:11:27.660Z,89.15
2018-12-24T06:13:58.939Z,89.06
2018-12-24T06:16:30.045Z,88.78
2018-12-24T06:19:01.058Z,88.59
2018-12-24T06:21:32.065Z,88.51
2018-12-24T06:24:03.274Z,88.61
2018-12-24T06:26:34.265Z,88.76
2018-12-24T06:29:05.259Z,88.72
2018-12-24T06:31:36.281Z,88.71
2018-12-24T06:34:07.350Z,88.76
2018-12-24T06:36:38.565Z,88.83
2018-12-24T06:39:10.215Z,88.83
2018-12-24T06:41:41.194Z,88.79
2018-12-24T06:44:12.339Z,88.62
2018-12-24T06:46:43.371Z,88.60
2018-12-24T06:49:14.422Z,88.59
2018-12-24T06:51:45.350Z,88.52
2018-12-24T06:54:16.334Z,88.10
2018-12-24T06:56:47.315Z,88.05
2018-12-24T06:59:18.634Z,87.77
2018-12-24T07:01:49.598Z,87.71
2018-12-24T07:04:20.588Z,87.48
2018-12-24T07:06:51.789Z,87.43
2018-12-24T07:09:22.839Z,87.40
2018-12-24T07:11:53.799Z,87.29
2018-12-24T07:14:24.835Z,87.07
2018-12-24T07:16:55.902Z,84.97
2018-12-24T07:19:26.997Z,84.98
2018-12-24T07:21:57.992Z,85.38
2018-12-24T07:24:29.070Z,85.59
2018-12-24T07:27:00.189Z,84.69
2018-12-24T07:29:31.291Z,82.34
2018-12-24T07:32:02.181Z,81.77
2018-12-24T07:34:33.145Z,82.78
2018-12-24T07:37:04.452Z,83.04
2018-12-24T07:39:35.709Z,82.88
2018-12-24T07:42:06.840Z,82.15
2018-12-24T07:44:37.849Z,79.76
2018-12-24T07:47:09.085Z,78.62
2018-12-24T07:49:40.364Z,78.78
2018-12-24T07:52:11.358Z,78.90
2018-12-24T07:54:42.345Z,78.89
2018-12-24T07:57:13.460Z,79.29
2018-12-24T07:59:44.894Z,79.92
2018-12-24T08:02:15.845Z,80.43
2018-12-24T08:04:47.081Z,81.84
2018-12-24T08:07:18.004Z,81.52
2018-12-24T08:09:48.924Z,82.08
2018-12-24T08:12:19.802Z,81.98
2018-12-24T08:14:50.915Z,81.65
2018-12-24T08:17:22.078Z,81.63
2018-12-24T08:19:53.309Z,81.04
2018-12-24T08:22:24.428Z,80.97
2018-12-24T08:24:55.442Z,80.76
2018-12-24T08:27:26.689Z,80.81
2018-12-24T08:29:57.640Z,81.46
2018-12-24T08:32:28.711Z,81.57
2018-12-24T08:34:59.834Z,81.18
2018-12-24T08:37:30.879Z,80.32
2018-12-24T08:40:01.812Z,80.20
2018-12-24T08:42:33.130Z,79.82
2018-12-24T08:45:04.040Z,79.94
2018-12-24T08:47:35.094Z,79.24
2018-12-24T08:50:06.569Z,78.42
2018-12-24T08:52:37.770Z,77.56
2018-12-24T08:55:08.974Z,77.92
2018-12-24T08:57:40.019Z,76.91
2018-12-24T09:00:11.022Z,77.62
2018-12-24T09:02:42.101Z,77.28
2018-12-24T09:05:13.312Z,76.85
2018-12-24T09:07:44.363Z,77.37
2018-12-24T09:10:15.424Z,77.85
2018-12-24T09:12:46.549Z,77.13
2018-12-24T09:15:17.781Z,77.59
2018-12-24T09:17:48.784Z,77.63
2018-12-24T09:20:19.821Z,77.89
2018-12-24T09:22:51.144Z,77.97
2018-12-24T09:25:22.225Z,77.71
2018-12-24T09:27:53.215Z,77.52
2018-12-24T09:30:25.279Z,77.88
2018-12-24T09:32:56.355Z,76.89
2018-12-24T09:35:27.274Z,76.96
2018-12-24T09:37:58.165Z,77.55
2018-12-24T09:40:29.212Z,77.23
2018-12-24T09:43:00.221Z,77.20
2018-12-24T09:45:31.294Z,77.04
2018-12-24T09:48:02.314Z,76.43
2018-12-24T09:50:33.540Z,76.39
2018-12-24T09:53:04.473Z,74.71
2018-12-24T09:55:35.693Z,71.86
2018-12-24T09:58:06.873Z,70.92
2018-12-24T10:00:37.963Z,71.56
2018-12-24T10:03:21.750Z,72.13
2018-12-24T10:05:54.945Z,71.86
2018-12-24T10:08:26.850Z,72.05
2018-12-24T10:10:57.906Z,72.74
2018-12-24T10:13:28.806Z,73.06
2018-12-24T10:15:59.870Z,74.21
2018-12-24T10:18:31.056Z,73.29
2018-12-24T10:21:02.151Z,73.66
2018-12-24T10:23:33.305Z,74.50
2018-12-24T10:26:04.341Z,75.03
2018-12-24T10:28:35.405Z,75.59
2018-12-24T10:31:06.422Z,75.39
2018-12-24T10:33:37.742Z,75.58
2018-12-24T10:36:08.710Z,75.07
2018-12-24T10:38:39.635Z,74.43
2018-12-24T10:41:20.275Z,74.38
2018-12-24T10:43:51.251Z,74.18
2018-12-24T10:46:22.249Z,74.93
2018-12-24T10:48:53.260Z,74.76
2018-12-24T10:51:24.304Z,75.41
2018-12-24T10:53:55.335Z,74.30
2018-12-24T10:56:26.389Z,73.79
2018-12-24T10:58:57.527Z,73.65
2018-12-24T11:01:28.645Z,72.98
2018-12-24T11:03:59.825Z,72.87
2018-12-24T11:06:30.940Z,72.66
2018-12-24T11:09:02.049Z,70.58
2018-12-24T11:11:34.883Z,70.63
2018-12-24T11:14:05.830Z,71.36
2018-12-24T11:16:36.904Z,70.83
2018-12-24T11:19:08.067Z,71.54
2018-12-24T11:21:39.113Z,72.26
2018-12-24T11:24:10.129Z,73.37
2018-12-24T11:26:41.139Z,73.83
2018-12-24T11:29:12.145Z,72.81
2018-12-24T11:31:43.695Z,72.18
2018-12-24T11:34:14.835Z,72.01
2018-12-24T11:36:45.839Z,72.47
2018-12-24T11:39:16.775Z,72.13
2018-12-24T11:41:47.845Z,72.82
2018-12-24T11:44:19.316Z,72.39
2018-12-24T11:46:50.276Z,72.86
2018-12-24T11:49:21.616Z,73.42
2018-12-24T11:51:52.661Z,73.56
2018-12-24T11:54:23.739Z,73.96
2018-12-24T11:56:54.729Z,73.94
2018-12-24T11:59:25.736Z,73.82
2018-12-24T12:01:56.860Z,73.93
2018-12-24T12:04:27.955Z,75.00
2018-12-24T12:06:58.911Z,74.16
2018-12-24T12:09:30.264Z,74.67
2018-12-24T12:12:01.135Z,74.92
2018-12-24T12:14:32.128Z,74.37
2018-12-24T12:17:03.115Z,75.31
2018-12-24T12:19:34.221Z,75.29
2018-12-24T12:22:05.321Z,75.58
2018-12-24T12:25:22.494Z,75.52
2018-12-24T12:27:52.845Z,75.51
2018-12-24T12:30:23.220Z,75.73
2018-12-24T12:32:53.634Z,75.05
2018-12-24T12:35:24.203Z,74.71
2018-12-24T12:37:54.492Z,74.43
2018-12-24T12:40:25.052Z,74.66
2018-12-24T12:42:55.543Z,75.13
2018-12-24T12:45:26.319Z,74.69
2018-12-24T12:47:57.530Z,75.11
2018-12-24T12:50:28.170Z,75.34
2018-12-24T12:52:58.734Z,75.46
2018-12-24T12:55:29.314Z,75.25
2018-12-24T12:57:59.818Z,75.19
2018-12-24T13:00:30.424Z,75.37
2018-12-24T13:03:01.307Z,75.21
2018-12-24T13:05:32.033Z,75.50
2018-12-24T13:08:02.653Z,75.41
2018-12-24T13:10:33.277Z,76.06
2018-12-24T13:13:03.756Z,75.97
2018-12-24T13:15:34.205Z,76.19
2018-12-24T13:18:04.811Z,75.58
2018-12-24T13:20:35.395Z,75.67
2018-12-24T13:23:05.995Z,75.65
2018-12-24T13:25:36.556Z,75.91
2018-12-24T13:28:06.940Z,74.96
2018-12-24T13:30:37.333Z,74.65
2018-12-24T13:33:07.825Z,75.04
2018-12-24T13:35:38.245Z,74.94
2018-12-24T13:38:08.775Z,74.54
2018-12-24T13:40:40.014Z,73.82
2018-12-24T13:43:10.448Z,74.04
2018-12-24T13:45:41.072Z,74.03
2018-12-24T13:48:11.565Z,73.92
2018-12-24T13:50:41.982Z,74.24
2018-12-24T13:53:12.473Z,74.52
2018-12-24T13:55:42.945Z,75.92
2018-12-24T13:58:13.501Z,76.31
2018-12-24T14:00:44.099Z,77.15
2018-12-24T14:03:14.567Z,77.63
2018-12-24T14:05:44.986Z,77.79
2018-12-24T14:08:15.490Z,78.30
2018-12-24T14:10:45.945Z,78.79
2018-12-24T14:13:16.423Z,78.88
2018-12-24T14:15:46.884Z,78.32
2018-12-24T14:18:17.529Z,79.18
2018-12-24T14:20:48.076Z,80.16
2018-12-24T14:23:18.605Z,80.36
2018-12-24T14:25:49.139Z,81.00
2018-12-24T14:28:19.739Z,81.35
2018-12-24T14:30:50.315Z,82.08
2018-12-24T14:33:20.785Z,82.63
2018-12-24T14:35:51.485Z,83.34
2018-12-24T14:38:22.128Z,83.32
2018-12-24T14:40:52.555Z,83.66
2018-12-24T14:43:23.128Z,83.73
2018-12-24T14:45:53.565Z,84.17
2018-12-24T14:48:24.226Z,84.31
2018-12-24T14:50:54.749Z,84.23
2018-12-24T14:53:25.293Z,84.32
2018-12-24T14:55:55.818Z,84.56
2018-12-24T14:58:26.431Z,84.33
2018-12-24T15:00:56.897Z,84.30
2018-12-24T15:03:27.259Z,83.70
2018-12-24T15:05:57.641Z,83.59
2018-12-24T15:08:28.065Z,83.27
2018-12-24T15:10:58.610Z,83.44
2018-12-24T15:13:29.088Z,83.97
2018-12-24T15:15:59.470Z,84.46
2018-12-24T15:18:30.119Z,84.77
2018-12-24T15:21:00.735Z,85.26
2018-12-24T15:23:31.119Z,84.83
2018-12-24T15:26:01.766Z,85.03
2018-12-24T15:28:32.156Z,83.77
2018-12-24T15:31:02.633Z,83.41
2018-12-24T15:33:33.219Z,83.20
2018-12-24T15:36:03.745Z,82.95
2018-12-24T15:38:34.216Z,82.52
2018-12-24T15:41:04.790Z,81.46
2018-12-24T15:43:35.438Z,81.02
2018-12-24T15:46:05.994Z,80.76
2018-12-24T15:48:36.465Z,80.54
2018-12-24T15:51:06.915Z,80.69
2018-12-24T15:53:37.460Z,80.50
2018-12-24T15:56:08.045Z,80.59
2018-12-24T15:58:38.560Z,80.74
2018-12-24T16:01:09.063Z,80.63
2018-12-24T16:03:39.650Z,80.65
2018-12-24T16:06:10.105Z,80.37
2018-12-24T16:08:40.520Z,80.51
2018-12-24T16:11:10.972Z,79.37
2018-12-24T16:13:41.410Z,77.80
2018-12-24T16:16:11.850Z,77.28
2018-12-24T16:18:42.246Z,76.33
2018-12-24T16:21:12.965Z,75.61
2018-12-24T16:23:43.495Z,75.38
2018-12-24T16:26:16.303Z,75.49
2018-12-24T16:28:46.420Z,74.67
2018-12-24T16:31:16.800Z,75.11
2018-12-24T16:33:47.380Z,75.18
2018-12-24T16:36:18.036Z,74.98
2018-12-24T16:38:48.561Z,75.22
2018-12-24T16:41:19.003Z,75.15
2018-12-24T16:43:49.562Z,74.99
2018-12-24T16:46:20.025Z,75.79
2018-12-24T16:48:50.496Z,76.27
2018-12-24T16:51:20.906Z,76.88
2018-12-24T16:53:51.845Z,77.33
2018-12-24T16:56:22.446Z,77.63
2018-12-24T16:58:52.865Z,78.09
2018-12-24T17:01:23.467Z,78.19
2018-12-24T17:03:53.888Z,77.70
2018-12-24T17:06:24.385Z,77.87
2018-12-24T17:08:54.823Z,77.67
2018-12-24T17:11:25.353Z,77.54
2018-12-24T17:13:55.975Z,77.51
2018-12-24T17:16:26.535Z,77.33
2018-12-24T17:18:57.056Z,77.51
2018-12-24T17:21:27.651Z,77.39
2018-12-24T17:23:58.035Z,77.74
2018-12-24T17:26:28.621Z,77.10
2018-12-24T17:28:59.353Z,76.44
2018-12-24T17:31:29.870Z,76.67
2018-12-24T17:34:01.159Z,76.24
2018-12-24T17:36:31.723Z,75.74
2018-12-24T17:39:02.104Z,75.94
2018-12-24T17:41:32.558Z,74.62
2018-12-24T17:44:03.104Z,74.91
2018-12-24T17:46:33.703Z,74.12
2018-12-24T17:49:04.321Z,73.30
2018-12-24T17:51:34.906Z,72.97
2018-12-24T17:54:05.561Z,72.75
2018-12-24T17:56:36.019Z,72.73
2018-12-24T17:59:06.501Z,72.63
2018-12-24T18:01:36.976Z,72.51
2018-12-24T18:04:09.112Z,72.80
2018-12-24T18:06:39.755Z,73.22
2018-12-24T18:09:10.283Z,72.42
2018-12-24T18:11:40.785Z,71.83
2018-12-24T18:14:11.195Z,72.56
2018-12-24T18:16:41.789Z,73.14
2018-12-24T18:19:12.351Z,72.21
2018-12-24T18:21:42.799Z,71.98
2018-12-24T18:24:13.270Z,72.77
2018-12-24T18:26:44.080Z,72.89
2018-12-24T18:29:14.623Z,72.69
2018-12-24T18:31:45.148Z,73.02
2018-12-24T18:34:15.619Z,72.09
2018-12-24T18:36:46.103Z,71.93
2018-12-24T18:39:16.561Z,71.70
2018-12-24T18:41:46.934Z,71.49
2018-12-24T18:44:17.544Z,70.52
2018-12-24T18:46:48.033Z,70.26
2018-12-24T18:49:18.472Z,70.53
2018-12-24T18:51:48.954Z,71.23
2018-12-24T18:54:19.578Z,72.09
2018-12-24T18:56:50.054Z,72.07
2018-12-24T18:59:20.596Z,72.19
2018-12-24T19:01:51.043Z,72.64
2018-12-24T19:04:21.668Z,72.67
2018-12-24T19:06:52.139Z,73.29
2018-12-24T19:09:22.674Z,73.27
2018-12-24T19:11:53.204Z,73.61
2018-12-24T19:14:23.613Z,74.06
2018-12-24T19:16:54.201Z,74.18
2018-12-24T19:19:24.742Z,74.32
2018-12-24T19:21:55.515Z,74.33
2018-12-24T19:24:26.094Z,74.63
2018-12-24T19:26:56.775Z,74.93
2018-12-24T19:29:27.312Z,74.63
2018-12-24T19:31:57.925Z,75.18
2018-12-24T19:34:28.521Z,75.02
2018-12-24T19:36:59.154Z,75.16
2018-12-24T19:39:29.703Z,75.14
2018-12-24T19:42:00.149Z,75.28
2018-12-24T19:44:30.598Z,74.76
2018-12-24T19:47:01.179Z,74.94
2018-12-24T19:49:31.810Z,75.27
2018-12-24T19:52:02.275Z,75.31
2018-12-24T19:54:32.763Z,75.22
2018-12-24T19:57:03.234Z,75.72
2018-12-24T19:59:33.711Z,74.28
2018-12-24T20:02:04.260Z,73.68
2018-12-24T20:04:34.774Z,73.82
2018-12-24T20:07:05.211Z,73.97
2018-12-24T20:09:35.629Z,74.09
2018-12-24T20:12:08.260Z,74.05
2018-12-24T20:14:38.880Z,74.35
2018-12-24T20:17:09.304Z,75.23
2018-12-24T20:19:39.893Z,75.40
2018-12-24T20:22:10.478Z,76.06
2018-12-24T20:24:40.924Z,75.99
2018-12-24T20:27:11.410Z,76.59
2018-12-24T20:29:41.823Z,76.07
2018-12-24T20:32:12.482Z,76.21
2018-12-24T20:34:43.000Z,76.15
2018-12-24T20:37:13.474Z,75.98
2018-12-24T20:39:44.300Z,76.25
2018-12-24T20:42:14.933Z,75.89
2018-12-24T20:44:45.550Z,76.29
2018-12-24T20:47:16.106Z,76.17
2018-12-24T20:49:46.540Z,76.43
2018-12-24T20:52:18.904Z,76.39
2018-12-24T20:54:49.363Z,76.50
2018-12-24T20:57:19.783Z,76.01
2018-12-24T20:59:50.329Z,76.27
2018-12-24T21:02:20.863Z,76.43
2018-12-24T21:04:51.473Z,76.40
2018-12-24T21:07:21.915Z,76.34
2018-12-24T21:09:52.525Z,76.43
2018-12-24T21:12:22.935Z,76.16
2018-12-24T21:14:53.559Z,76.00
2018-12-24T21:17:24.034Z,76.10
2018-12-24T21:19:54.462Z,75.91
2018-12-24T21:22:24.971Z,76.15
2018-12-24T21:24:55.422Z,76.32
2018-12-24T21:27:25.999Z,76.12
2018-12-24T21:29:56.536Z,76.18
2018-12-24T21:32:26.985Z,76.20
2018-12-24T21:34:57.655Z,76.66
2018-12-24T21:37:28.295Z,76.23
2018-12-24T21:39:59.195Z,76.49
2018-12-24T21:42:29.745Z,76.85
2018-12-24T21:45:00.335Z,77.04
2018-12-24T21:47:30.854Z,76.90
2018-12-24T21:50:01.411Z,76.82
2018-12-24T21:52:31.835Z,77.03
2018-12-24T21:55:02.376Z,77.55
2018-12-24T21:57:32.819Z,77.44
2018-12-24T22:00:03.755Z,77.61
2018-12-24T22:02:34.167Z,77.61
2018-12-24T22:05:04.709Z,77.64
2018-12-24T22:07:35.095Z,77.94
2018-12-24T22:10:06.045Z,78.18
2018-12-24T22:12:36.553Z,78.27
2018-12-24T22:15:07.176Z,78.02
2018-12-24T22:17:37.705Z,78.38
2018-12-24T22:20:08.335Z,78.35
2018-12-24T22:22:38.979Z,78.17
2018-12-24T22:25:09.593Z,78.48
2018-12-24T22:27:40.095Z,78.41
2018-12-24T22:30:10.706Z,78.33
2018-12-24T22:32:41.235Z,78.39
2018-12-24T22:35:11.660Z,78.64
2018-12-24T22:37:42.435Z,78.82
2018-12-24T22:40:12.883Z,78.74
2018-12-24T22:42:43.309Z,78.48
2018-12-24T22:45:14.260Z,78.54
2018-12-24T22:47:44.703Z,78.55
2018-12-24T22:50:15.318Z,78.37
2018-12-24T22:52:45.908Z,78.61
2018-12-24T22:55:16.454Z,78.69
2018-12-24T22:57:46.893Z,78.50
2018-12-24T23:00:32.401Z,78.06
2018-12-24T23:03:03.088Z,78.42
2018-12-24T23:05:33.563Z,78.74
2018-12-24T23:08:04.185Z,78.62
2018-12-24T23:10:34.814Z,78.51
2018-12-24T23:13:05.464Z,78.45
2018-12-24T23:15:36.031Z,78.52
2018-12-24T23:18:06.656Z,78.72
2018-12-24T23:20:37.184Z,78.59
2018-12-24T23:23:07.687Z,78.56
2018-12-24T23:25:38.199Z,78.36
2018-12-24T23:28:08.775Z,78.70
2018-12-24T23:30:39.236Z,78.73
2018-12-24T23:33:09.802Z,78.67
2018-12-24T23:35:40.623Z,78.71
2018-12-24T23:38:11.864Z,78.93
2018-12-24T23:40:42.460Z,79.34
2018-12-24T23:43:13.106Z,79.35
2018-12-24T23:45:43.533Z,79.06
2018-12-24T23:48:14.036Z,79.06
2018-12-24T23:50:44.523Z,79.26
2018-12-24T23:53:15.053Z,79.29
2018-12-24T23:55:45.553Z,79.45
2018-12-24T23:58:16.015Z,79.41
